sensor_id;sensor_type;location;lat;lon;timestamp;P1;durP1;ratioP1;P2;durP2;ratioP2
77563;SDS011;66703;48.076;9.220;2023-09-30T00:00:36;23.40;;;9.20;;
77563;SDS011;66703;48.076;9.220;2023-09-30T00:03:01;15.75;;;7.18;;
77563;SDS011;66703;48.076;9.220;2023-09-30T00:05:27;15.98;;;8.05;;
77563;SDS011;66703;48.076;9.220;2023-09-30T00:07:53;15.23;;;7.47;;
77563;SDS011;66703;48.076;9.220;2023-09-30T00:10:18;18.70;;;8.18;;
77563;SDS011;66703;48.076;9.220;2023-09-30T00:12:43;14.05;;;8.07;;
77563;SDS011;66703;48.076;9.220;2023-09-30T00:15:09;17.35;;;8.07;;
77563;SDS011;66703;48.076;9.220;2023-09-30T00:17:35;14.93;;;7.57;;
77563;SDS011;66703;48.076;9.220;2023-09-30T00:20:00;16.70;;;7.78;;
77563;SDS011;66703;48.076;9.220;2023-09-30T00:22:25;13.90;;;6.88;;
77563;SDS011;66703;48.076;9.220;2023-09-30T00:24:51;19.33;;;7.55;;
77563;SDS011;66703;48.076;9.220;2023-09-30T00:27:16;18.42;;;7.45;;
77563;SDS011;66703;48.076;9.220;2023-09-30T00:29:42;13.23;;;7.10;;
77563;SDS011;66703;48.076;9.220;2023-09-30T00:32:07;16.30;;;8.07;;
77563;SDS011;66703;48.076;9.220;2023-09-30T00:34:35;14.00;;;6.53;;
77563;SDS011;66703;48.076;9.220;2023-09-30T00:37:01;13.80;;;6.22;;
77563;SDS011;66703;48.076;9.220;2023-09-30T00:39:27;15.82;;;6.82;;
77563;SDS011;66703;48.076;9.220;2023-09-30T00:41:56;16.42;;;7.22;;
77563;SDS011;66703;48.076;9.220;2023-09-30T00:44:23;16.63;;;7.93;;
77563;SDS011;66703;48.076;9.220;2023-09-30T00:46:50;12.52;;;7.68;;
77563;SDS011;66703;48.076;9.220;2023-09-30T00:49:15;15.65;;;8.00;;
77563;SDS011;66703;48.076;9.220;2023-09-30T00:51:43;12.80;;;5.82;;
77563;SDS011;66703;48.076;9.220;2023-09-30T00:54:09;13.23;;;7.82;;
77563;SDS011;66703;48.076;9.220;2023-09-30T00:56:35;13.05;;;7.63;;
77563;SDS011;66703;48.076;9.220;2023-09-30T00:59:01;15.93;;;6.90;;
77563;SDS011;66703;48.076;9.220;2023-09-30T01:01:26;14.95;;;7.05;;
77563;SDS011;66703;48.076;9.220;2023-09-30T01:03:52;15.93;;;7.53;;
77563;SDS011;66703;48.076;9.220;2023-09-30T01:06:17;14.52;;;7.03;;
77563;SDS011;66703;48.076;9.220;2023-09-30T01:08:43;12.80;;;7.30;;
77563;SDS011;66703;48.076;9.220;2023-09-30T01:11:08;20.40;;;7.00;;
77563;SDS011;66703;48.076;9.220;2023-09-30T01:13:34;15.48;;;7.35;;
77563;SDS011;66703;48.076;9.220;2023-09-30T01:16:07;13.88;;;6.38;;
77563;SDS011;66703;48.076;9.220;2023-09-30T01:21:03;14.18;;;6.93;;
77563;SDS011;66703;48.076;9.220;2023-09-30T01:23:30;14.57;;;7.40;;
77563;SDS011;66703;48.076;9.220;2023-09-30T01:25:56;13.10;;;5.85;;
77563;SDS011;66703;48.076;9.220;2023-09-30T01:28:21;13.35;;;7.07;;
77563;SDS011;66703;48.076;9.220;2023-09-30T01:30:48;11.18;;;6.72;;
77563;SDS011;66703;48.076;9.220;2023-09-30T01:33:13;15.23;;;7.10;;
77563;SDS011;66703;48.076;9.220;2023-09-30T01:35:39;11.07;;;5.53;;
77563;SDS011;66703;48.076;9.220;2023-09-30T01:38:04;12.73;;;6.57;;
77563;SDS011;66703;48.076;9.220;2023-09-30T01:40:29;11.43;;;6.07;;
77563;SDS011;66703;48.076;9.220;2023-09-30T01:42:55;11.43;;;5.20;;
77563;SDS011;66703;48.076;9.220;2023-09-30T01:45:21;15.13;;;6.72;;
77563;SDS011;66703;48.076;9.220;2023-09-30T01:47:46;16.40;;;7.60;;
77563;SDS011;66703;48.076;9.220;2023-09-30T01:50:12;16.00;;;7.30;;
77563;SDS011;66703;48.076;9.220;2023-09-30T01:52:37;12.50;;;6.70;;
77563;SDS011;66703;48.076;9.220;2023-09-30T01:55:03;12.65;;;6.97;;
77563;SDS011;66703;48.076;9.220;2023-09-30T01:57:28;17.35;;;8.25;;
77563;SDS011;66703;48.076;9.220;2023-09-30T01:59:54;13.68;;;7.07;;
77563;SDS011;66703;48.076;9.220;2023-09-30T02:02:20;13.23;;;7.60;;
77563;SDS011;66703;48.076;9.220;2023-09-30T02:04:45;14.73;;;6.82;;
77563;SDS011;66703;48.076;9.220;2023-09-30T02:07:10;17.92;;;8.75;;
77563;SDS011;66703;48.076;9.220;2023-09-30T02:09:36;14.27;;;6.78;;
77563;SDS011;66703;48.076;9.220;2023-09-30T02:12:01;12.27;;;7.07;;
77563;SDS011;66703;48.076;9.220;2023-09-30T02:14:27;11.25;;;6.25;;
77563;SDS011;66703;48.076;9.220;2023-09-30T02:16:52;15.63;;;7.63;;
77563;SDS011;66703;48.076;9.220;2023-09-30T02:19:18;12.93;;;7.05;;
77563;SDS011;66703;48.076;9.220;2023-09-30T02:21:44;12.52;;;6.57;;
77563;SDS011;66703;48.076;9.220;2023-09-30T02:24:10;14.85;;;6.90;;
77563;SDS011;66703;48.076;9.220;2023-09-30T02:26:35;16.77;;;7.13;;
77563;SDS011;66703;48.076;9.220;2023-09-30T02:29:01;12.65;;;7.25;;
77563;SDS011;66703;48.076;9.220;2023-09-30T02:31:26;13.98;;;7.20;;
77563;SDS011;66703;48.076;9.220;2023-09-30T02:33:51;14.38;;;7.75;;
77563;SDS011;66703;48.076;9.220;2023-09-30T02:36:17;14.85;;;7.22;;
77563;SDS011;66703;48.076;9.220;2023-09-30T02:38:42;12.68;;;7.53;;
77563;SDS011;66703;48.076;9.220;2023-09-30T02:41:08;14.70;;;8.00;;
77563;SDS011;66703;48.076;9.220;2023-09-30T02:43:34;17.08;;;7.95;;
77563;SDS011;66703;48.076;9.220;2023-09-30T02:45:59;15.75;;;8.50;;
77563;SDS011;66703;48.076;9.220;2023-09-30T02:48:25;16.75;;;7.45;;
77563;SDS011;66703;48.076;9.220;2023-09-30T02:50:50;13.93;;;6.90;;
77563;SDS011;66703;48.076;9.220;2023-09-30T02:53:15;20.75;;;7.88;;
77563;SDS011;66703;48.076;9.220;2023-09-30T02:55:41;14.43;;;7.53;;
77563;SDS011;66703;48.076;9.220;2023-09-30T02:58:07;14.98;;;7.10;;
77563;SDS011;66703;48.076;9.220;2023-09-30T03:00:35;13.00;;;6.50;;
77563;SDS011;66703;48.076;9.220;2023-09-30T03:03:02;12.55;;;6.38;;
77563;SDS011;66703;48.076;9.220;2023-09-30T03:05:28;13.55;;;6.97;;
77563;SDS011;66703;48.076;9.220;2023-09-30T03:07:57;15.68;;;7.15;;
77563;SDS011;66703;48.076;9.220;2023-09-30T03:10:22;16.00;;;7.07;;
77563;SDS011;66703;48.076;9.220;2023-09-30T03:12:54;14.40;;;7.13;;
77563;SDS011;66703;48.076;9.220;2023-09-30T03:15:21;16.42;;;8.15;;
77563;SDS011;66703;48.076;9.220;2023-09-30T03:17:46;14.02;;;7.07;;
77563;SDS011;66703;48.076;9.220;2023-09-30T03:20:12;14.98;;;8.25;;
77563;SDS011;66703;48.076;9.220;2023-09-30T03:22:39;15.57;;;8.00;;
77563;SDS011;66703;48.076;9.220;2023-09-30T03:25:09;19.30;;;7.35;;
77563;SDS011;66703;48.076;9.220;2023-09-30T03:27:35;12.82;;;7.68;;
77563;SDS011;66703;48.076;9.220;2023-09-30T03:30:02;14.70;;;7.03;;
77563;SDS011;66703;48.076;9.220;2023-09-30T03:32:28;16.38;;;7.50;;
77563;SDS011;66703;48.076;9.220;2023-09-30T03:34:54;12.98;;;7.38;;
77563;SDS011;66703;48.076;9.220;2023-09-30T03:37:24;15.95;;;7.97;;
77563;SDS011;66703;48.076;9.220;2023-09-30T03:39:51;13.07;;;7.22;;
77563;SDS011;66703;48.076;9.220;2023-09-30T03:42:18;14.20;;;6.32;;
77563;SDS011;66703;48.076;9.220;2023-09-30T03:44:43;18.17;;;7.43;;
77563;SDS011;66703;48.076;9.220;2023-09-30T03:47:09;11.85;;;6.05;;
77563;SDS011;66703;48.076;9.220;2023-09-30T03:49:34;14.60;;;6.10;;
77563;SDS011;66703;48.076;9.220;2023-09-30T03:52:00;13.48;;;6.50;;
77563;SDS011;66703;48.076;9.220;2023-09-30T03:54:25;13.85;;;7.55;;
77563;SDS011;66703;48.076;9.220;2023-09-30T03:56:51;14.60;;;6.75;;
77563;SDS011;66703;48.076;9.220;2023-09-30T03:59:17;12.52;;;5.93;;
77563;SDS011;66703;48.076;9.220;2023-09-30T04:01:44;13.27;;;6.82;;
77563;SDS011;66703;48.076;9.220;2023-09-30T04:04:09;17.50;;;7.65;;
77563;SDS011;66703;48.076;9.220;2023-09-30T04:06:35;14.15;;;6.75;;
77563;SDS011;66703;48.076;9.220;2023-09-30T04:09:03;11.18;;;5.60;;
77563;SDS011;66703;48.076;9.220;2023-09-30T04:11:34;13.35;;;7.03;;
77563;SDS011;66703;48.076;9.220;2023-09-30T04:14:01;11.07;;;5.45;;
77563;SDS011;66703;48.076;9.220;2023-09-30T04:16:26;12.65;;;6.43;;
77563;SDS011;66703;48.076;9.220;2023-09-30T04:18:54;13.23;;;6.45;;
77563;SDS011;66703;48.076;9.220;2023-09-30T04:21:20;11.80;;;5.95;;
77563;SDS011;66703;48.076;9.220;2023-09-30T04:23:46;10.35;;;5.72;;
77563;SDS011;66703;48.076;9.220;2023-09-30T04:26:11;10.73;;;6.20;;
77563;SDS011;66703;48.076;9.220;2023-09-30T04:28:37;9.07;;;5.72;;
77563;SDS011;66703;48.076;9.220;2023-09-30T04:31:02;10.98;;;6.00;;
77563;SDS011;66703;48.076;9.220;2023-09-30T04:33:28;12.00;;;6.32;;
77563;SDS011;66703;48.076;9.220;2023-09-30T04:35:53;10.40;;;6.47;;
77563;SDS011;66703;48.076;9.220;2023-09-30T04:38:19;10.93;;;6.78;;
77563;SDS011;66703;48.076;9.220;2023-09-30T04:40:45;13.60;;;7.35;;
77563;SDS011;66703;48.076;9.220;2023-09-30T04:43:13;15.02;;;6.47;;
77563;SDS011;66703;48.076;9.220;2023-09-30T04:45:39;12.45;;;6.18;;
77563;SDS011;66703;48.076;9.220;2023-09-30T04:48:05;14.35;;;7.25;;
77563;SDS011;66703;48.076;9.220;2023-09-30T04:50:31;12.77;;;6.57;;
77563;SDS011;66703;48.076;9.220;2023-09-30T04:52:56;14.13;;;7.35;;
77563;SDS011;66703;48.076;9.220;2023-09-30T04:55:25;12.95;;;7.30;;
77563;SDS011;66703;48.076;9.220;2023-09-30T04:57:51;10.88;;;6.63;;
77563;SDS011;66703;48.076;9.220;2023-09-30T05:00:17;13.93;;;7.55;;
77563;SDS011;66703;48.076;9.220;2023-09-30T05:02:44;13.85;;;7.20;;
77563;SDS011;66703;48.076;9.220;2023-09-30T05:05:13;14.18;;;8.10;;
77563;SDS011;66703;48.076;9.220;2023-09-30T05:07:39;13.75;;;7.60;;
77563;SDS011;66703;48.076;9.220;2023-09-30T05:10:06;14.68;;;7.30;;
77563;SDS011;66703;48.076;9.220;2023-09-30T05:12:36;12.13;;;7.32;;
77563;SDS011;66703;48.076;9.220;2023-09-30T05:15:02;12.05;;;6.30;;
77563;SDS011;66703;48.076;9.220;2023-09-30T05:17:28;11.07;;;6.80;;
77563;SDS011;66703;48.076;9.220;2023-09-30T05:19:55;12.38;;;7.50;;
77563;SDS011;66703;48.076;9.220;2023-09-30T05:22:22;11.07;;;6.03;;
77563;SDS011;66703;48.076;9.220;2023-09-30T05:24:50;10.27;;;8.13;;
77563;SDS011;66703;48.076;9.220;2023-09-30T05:27:18;13.40;;;5.90;;
77563;SDS011;66703;48.076;9.220;2023-09-30T05:29:44;14.63;;;6.60;;
77563;SDS011;66703;48.076;9.220;2023-09-30T05:32:10;11.52;;;5.68;;
77563;SDS011;66703;48.076;9.220;2023-09-30T05:34:35;11.25;;;6.18;;
77563;SDS011;66703;48.076;9.220;2023-09-30T05:37:02;13.43;;;6.78;;
77563;SDS011;66703;48.076;9.220;2023-09-30T05:39:28;13.38;;;6.82;;
77563;SDS011;66703;48.076;9.220;2023-09-30T05:41:53;13.35;;;5.97;;
77563;SDS011;66703;48.076;9.220;2023-09-30T05:44:20;12.95;;;6.07;;
77563;SDS011;66703;48.076;9.220;2023-09-30T05:46:46;13.02;;;6.38;;
77563;SDS011;66703;48.076;9.220;2023-09-30T05:49:12;9.98;;;6.07;;
77563;SDS011;66703;48.076;9.220;2023-09-30T05:51:42;10.68;;;6.57;;
77563;SDS011;66703;48.076;9.220;2023-09-30T05:54:11;13.43;;;7.30;;
77563;SDS011;66703;48.076;9.220;2023-09-30T05:56:37;12.50;;;6.25;;
77563;SDS011;66703;48.076;9.220;2023-09-30T05:59:03;17.85;;;7.97;;
77563;SDS011;66703;48.076;9.220;2023-09-30T06:01:30;12.95;;;6.32;;
77563;SDS011;66703;48.076;9.220;2023-09-30T06:03:59;13.13;;;5.90;;
77563;SDS011;66703;48.076;9.220;2023-09-30T06:06:25;16.27;;;7.30;;
77563;SDS011;66703;48.076;9.220;2023-09-30T06:08:51;11.75;;;6.95;;
77563;SDS011;66703;48.076;9.220;2023-09-30T06:11:18;12.30;;;7.00;;
77563;SDS011;66703;48.076;9.220;2023-09-30T06:13:45;12.98;;;7.88;;
77563;SDS011;66703;48.076;9.220;2023-09-30T06:16:12;11.20;;;6.82;;
77563;SDS011;66703;48.076;9.220;2023-09-30T06:18:37;16.67;;;7.70;;
77563;SDS011;66703;48.076;9.220;2023-09-30T06:21:03;9.77;;;5.97;;
77563;SDS011;66703;48.076;9.220;2023-09-30T06:23:29;14.25;;;6.13;;
77563;SDS011;66703;48.076;9.220;2023-09-30T06:25:56;11.15;;;6.22;;
77563;SDS011;66703;48.076;9.220;2023-09-30T06:28:21;14.50;;;6.72;;
77563;SDS011;66703;48.076;9.220;2023-09-30T06:30:51;11.75;;;7.38;;
77563;SDS011;66703;48.076;9.220;2023-09-30T06:33:17;12.05;;;6.35;;
77563;SDS011;66703;48.076;9.220;2023-09-30T06:35:42;11.25;;;5.82;;
77563;SDS011;66703;48.076;9.220;2023-09-30T06:38:16;10.38;;;6.93;;
77563;SDS011;66703;48.076;9.220;2023-09-30T06:40:44;11.15;;;6.50;;
77563;SDS011;66703;48.076;9.220;2023-09-30T06:43:14;12.93;;;6.97;;
77563;SDS011;66703;48.076;9.220;2023-09-30T06:45:41;11.65;;;6.10;;
77563;SDS011;66703;48.076;9.220;2023-09-30T06:48:10;15.85;;;7.18;;
77563;SDS011;66703;48.076;9.220;2023-09-30T06:50:40;12.18;;;6.47;;
77563;SDS011;66703;48.076;9.220;2023-09-30T06:53:08;13.20;;;6.90;;
77563;SDS011;66703;48.076;9.220;2023-09-30T06:55:34;11.43;;;5.90;;
77563;SDS011;66703;48.076;9.220;2023-09-30T06:58:02;11.90;;;6.22;;
77563;SDS011;66703;48.076;9.220;2023-09-30T07:00:29;13.82;;;7.00;;
77563;SDS011;66703;48.076;9.220;2023-09-30T07:02:54;10.98;;;6.63;;
77563;SDS011;66703;48.076;9.220;2023-09-30T07:05:22;13.43;;;6.25;;
77563;SDS011;66703;48.076;9.220;2023-09-30T07:07:47;12.75;;;7.07;;
77563;SDS011;66703;48.076;9.220;2023-09-30T07:10:13;13.88;;;7.05;;
77563;SDS011;66703;48.076;9.220;2023-09-30T07:12:39;12.57;;;6.65;;
77563;SDS011;66703;48.076;9.220;2023-09-30T07:15:05;10.85;;;5.93;;
77563;SDS011;66703;48.076;9.220;2023-09-30T07:17:31;15.25;;;6.32;;
77563;SDS011;66703;48.076;9.220;2023-09-30T07:19:57;12.07;;;6.80;;
77563;SDS011;66703;48.076;9.220;2023-09-30T07:22:23;12.43;;;7.30;;
77563;SDS011;66703;48.076;9.220;2023-09-30T07:24:48;9.93;;;5.80;;
77563;SDS011;66703;48.076;9.220;2023-09-30T07:27:14;12.98;;;6.25;;
77563;SDS011;66703;48.076;9.220;2023-09-30T07:29:39;11.52;;;6.07;;
77563;SDS011;66703;48.076;9.220;2023-09-30T07:32:06;13.40;;;6.25;;
77563;SDS011;66703;48.076;9.220;2023-09-30T07:34:32;12.07;;;6.93;;
77563;SDS011;66703;48.076;9.220;2023-09-30T07:36:58;12.50;;;5.95;;
77563;SDS011;66703;48.076;9.220;2023-09-30T07:39:24;15.07;;;6.25;;
77563;SDS011;66703;48.076;9.220;2023-09-30T07:41:49;11.05;;;5.22;;
77563;SDS011;66703;48.076;9.220;2023-09-30T07:44:15;13.90;;;5.97;;
77563;SDS011;66703;48.076;9.220;2023-09-30T07:46:40;11.95;;;5.78;;
77563;SDS011;66703;48.076;9.220;2023-09-30T07:49:07;11.68;;;7.10;;
77563;SDS011;66703;48.076;9.220;2023-09-30T07:51:53;11.35;;;6.18;;
77563;SDS011;66703;48.076;9.220;2023-09-30T07:54:21;11.35;;;5.60;;
77563;SDS011;66703;48.076;9.220;2023-09-30T07:56:46;10.40;;;6.30;;
77563;SDS011;66703;48.076;9.220;2023-09-30T07:59:12;10.98;;;5.25;;
77563;SDS011;66703;48.076;9.220;2023-09-30T08:01:38;11.07;;;7.18;;
77563;SDS011;66703;48.076;9.220;2023-09-30T08:04:05;13.20;;;6.07;;
77563;SDS011;66703;48.076;9.220;2023-09-30T08:06:31;9.65;;;5.50;;
77563;SDS011;66703;48.076;9.220;2023-09-30T08:08:56;10.75;;;5.90;;
77563;SDS011;66703;48.076;9.220;2023-09-30T08:11:22;10.38;;;6.20;;
77563;SDS011;66703;48.076;9.220;2023-09-30T08:13:48;8.73;;;5.35;;
77563;SDS011;66703;48.076;9.220;2023-09-30T08:16:13;9.80;;;4.57;;
77563;SDS011;66703;48.076;9.220;2023-09-30T08:18:40;8.45;;;4.90;;
77563;SDS011;66703;48.076;9.220;2023-09-30T08:21:08;9.02;;;5.05;;
77563;SDS011;66703;48.076;9.220;2023-09-30T08:26:00;8.97;;;4.43;;
77563;SDS011;66703;48.076;9.220;2023-09-30T08:28:26;10.88;;;5.20;;
77563;SDS011;66703;48.076;9.220;2023-09-30T08:30:51;8.40;;;5.20;;
77563;SDS011;66703;48.076;9.220;2023-09-30T08:33:19;12.25;;;6.03;;
77563;SDS011;66703;48.076;9.220;2023-09-30T08:35:46;11.57;;;5.82;;
77563;SDS011;66703;48.076;9.220;2023-09-30T08:38:11;14.07;;;5.72;;
77563;SDS011;66703;48.076;9.220;2023-09-30T08:40:37;7.30;;;3.78;;
77563;SDS011;66703;48.076;9.220;2023-09-30T08:43:03;7.85;;;4.78;;
77563;SDS011;66703;48.076;9.220;2023-09-30T08:45:29;7.35;;;3.97;;
77563;SDS011;66703;48.076;9.220;2023-09-30T08:47:58;7.45;;;4.22;;
77563;SDS011;66703;48.076;9.220;2023-09-30T08:50:29;9.18;;;4.50;;
77563;SDS011;66703;48.076;9.220;2023-09-30T08:52:56;10.05;;;5.22;;
77563;SDS011;66703;48.076;9.220;2023-09-30T08:55:21;9.60;;;4.93;;
77563;SDS011;66703;48.076;9.220;2023-09-30T08:57:57;11.63;;;4.80;;
77563;SDS011;66703;48.076;9.220;2023-09-30T09:00:30;12.23;;;6.85;;
77563;SDS011;66703;48.076;9.220;2023-09-30T09:03:23;10.25;;;4.70;;
77563;SDS011;66703;48.076;9.220;2023-09-30T09:05:57;8.57;;;4.93;;
77563;SDS011;66703;48.076;9.220;2023-09-30T09:08:26;11.20;;;5.28;;
77563;SDS011;66703;48.076;9.220;2023-09-30T09:10:59;7.80;;;4.60;;
77563;SDS011;66703;48.076;9.220;2023-09-30T09:13:25;8.60;;;4.72;;
77563;SDS011;66703;48.076;9.220;2023-09-30T09:16:07;10.70;;;5.22;;
77563;SDS011;66703;48.076;9.220;2023-09-30T09:18:34;13.40;;;6.30;;
77563;SDS011;66703;48.076;9.220;2023-09-30T09:21:13;11.55;;;6.15;;
77563;SDS011;66703;48.076;9.220;2023-09-30T09:23:44;10.57;;;5.53;;
77563;SDS011;66703;48.076;9.220;2023-09-30T09:26:26;12.43;;;4.93;;
77563;SDS011;66703;48.076;9.220;2023-09-30T09:28:59;12.55;;;5.68;;
77563;SDS011;66703;48.076;9.220;2023-09-30T09:31:26;11.60;;;6.20;;
77563;SDS011;66703;48.076;9.220;2023-09-30T09:33:52;13.27;;;6.35;;
77563;SDS011;66703;48.076;9.220;2023-09-30T09:36:22;9.90;;;5.47;;
77563;SDS011;66703;48.076;9.220;2023-09-30T09:39:03;11.90;;;5.05;;
77563;SDS011;66703;48.076;9.220;2023-09-30T09:41:29;10.02;;;4.72;;
77563;SDS011;66703;48.076;9.220;2023-09-30T09:43:54;7.80;;;4.88;;
77563;SDS011;66703;48.076;9.220;2023-09-30T09:46:20;9.73;;;5.00;;
77563;SDS011;66703;48.076;9.220;2023-09-30T09:48:46;10.18;;;5.47;;
77563;SDS011;66703;48.076;9.220;2023-09-30T09:51:14;12.45;;;5.57;;
77563;SDS011;66703;48.076;9.220;2023-09-30T09:53:41;10.85;;;5.53;;
77563;SDS011;66703;48.076;9.220;2023-09-30T09:56:10;10.65;;;5.13;;
77563;SDS011;66703;48.076;9.220;2023-09-30T09:58:38;9.07;;;4.50;;
77563;SDS011;66703;48.076;9.220;2023-09-30T10:01:06;10.48;;;5.65;;
77563;SDS011;66703;48.076;9.220;2023-09-30T10:03:32;12.23;;;5.90;;
77563;SDS011;66703;48.076;9.220;2023-09-30T10:05:59;11.57;;;5.93;;
77563;SDS011;66703;48.076;9.220;2023-09-30T10:11:18;9.20;;;4.82;;
77563;SDS011;66703;48.076;9.220;2023-09-30T10:24:46;10.73;;;5.63;;
77563;SDS011;66703;48.076;9.220;2023-09-30T10:29:47;11.88;;;5.45;;
77563;SDS011;66703;48.076;9.220;2023-09-30T10:32:14;15.68;;;6.40;;
77563;SDS011;66703;48.076;9.220;2023-09-30T10:34:47;11.75;;;5.88;;
77563;SDS011;66703;48.076;9.220;2023-09-30T10:37:21;14.05;;;5.75;;
77563;SDS011;66703;48.076;9.220;2023-09-30T10:39:55;13.95;;;5.95;;
77563;SDS011;66703;48.076;9.220;2023-09-30T10:50:50;12.45;;;6.57;;
77563;SDS011;66703;48.076;9.220;2023-09-30T10:53:17;10.13;;;5.63;;
77563;SDS011;66703;48.076;9.220;2023-09-30T10:55:46;10.98;;;5.47;;
77563;SDS011;66703;48.076;9.220;2023-09-30T10:58:15;13.57;;;5.55;;
77563;SDS011;66703;48.076;9.220;2023-09-30T11:00:58;11.90;;;6.40;;
77563;SDS011;66703;48.076;9.220;2023-09-30T11:03:24;13.77;;;6.68;;
77563;SDS011;66703;48.076;9.220;2023-09-30T11:05:50;12.05;;;5.82;;
77563;SDS011;66703;48.076;9.220;2023-09-30T11:08:20;14.80;;;6.45;;
77563;SDS011;66703;48.076;9.220;2023-09-30T11:10:50;12.98;;;5.88;;
77563;SDS011;66703;48.076;9.220;2023-09-30T11:13:19;11.93;;;5.93;;
77563;SDS011;66703;48.076;9.220;2023-09-30T11:15:45;11.95;;;6.03;;
77563;SDS011;66703;48.076;9.220;2023-09-30T11:18:17;12.10;;;5.25;;
77563;SDS011;66703;48.076;9.220;2023-09-30T11:20:43;12.85;;;5.97;;
77563;SDS011;66703;48.076;9.220;2023-09-30T11:23:09;13.32;;;5.88;;
77563;SDS011;66703;48.076;9.220;2023-09-30T11:25:39;12.25;;;5.95;;
77563;SDS011;66703;48.076;9.220;2023-09-30T11:28:15;15.20;;;6.32;;
77563;SDS011;66703;48.076;9.220;2023-09-30T11:33:19;14.15;;;6.38;;
77563;SDS011;66703;48.076;9.220;2023-09-30T11:36:00;11.98;;;6.03;;
77563;SDS011;66703;48.076;9.220;2023-09-30T11:38:27;13.85;;;5.93;;
77563;SDS011;66703;48.076;9.220;2023-09-30T11:41:03;12.30;;;5.22;;
77563;SDS011;66703;48.076;9.220;2023-09-30T11:43:31;12.35;;;5.40;;
77563;SDS011;66703;48.076;9.220;2023-09-30T11:46:11;14.38;;;6.03;;
77563;SDS011;66703;48.076;9.220;2023-09-30T11:48:40;12.02;;;5.70;;
77563;SDS011;66703;48.076;9.220;2023-09-30T11:51:28;11.18;;;6.18;;
77563;SDS011;66703;48.076;9.220;2023-09-30T11:53:54;15.43;;;7.32;;
77563;SDS011;66703;48.076;9.220;2023-09-30T11:56:20;11.65;;;6.22;;
77563;SDS011;66703;48.076;9.220;2023-09-30T11:58:47;11.50;;;5.72;;
77563;SDS011;66703;48.076;9.220;2023-09-30T12:01:13;12.10;;;5.72;;
77563;SDS011;66703;48.076;9.220;2023-09-30T12:03:39;11.75;;;5.63;;
77563;SDS011;66703;48.076;9.220;2023-09-30T12:06:08;12.18;;;6.03;;
77563;SDS011;66703;48.076;9.220;2023-09-30T12:08:38;11.45;;;5.45;;
77563;SDS011;66703;48.076;9.220;2023-09-30T12:11:04;18.15;;;6.38;;
77563;SDS011;66703;48.076;9.220;2023-09-30T12:13:29;13.70;;;5.97;;
77563;SDS011;66703;48.076;9.220;2023-09-30T12:15:55;18.38;;;6.90;;
77563;SDS011;66703;48.076;9.220;2023-09-30T12:18:22;14.93;;;6.13;;
77563;SDS011;66703;48.076;9.220;2023-09-30T12:20:49;13.15;;;6.32;;
77563;SDS011;66703;48.076;9.220;2023-09-30T12:23:17;11.40;;;5.40;;
77563;SDS011;66703;48.076;9.220;2023-09-30T12:25:43;15.57;;;6.47;;
77563;SDS011;66703;48.076;9.220;2023-09-30T12:28:08;12.85;;;5.75;;
77563;SDS011;66703;48.076;9.220;2023-09-30T12:30:34;13.57;;;6.03;;
77563;SDS011;66703;48.076;9.220;2023-09-30T12:32:59;13.05;;;5.63;;
77563;SDS011;66703;48.076;9.220;2023-09-30T12:35:26;12.63;;;6.25;;
77563;SDS011;66703;48.076;9.220;2023-09-30T12:37:51;15.07;;;6.07;;
77563;SDS011;66703;48.076;9.220;2023-09-30T12:40:17;12.88;;;6.13;;
77563;SDS011;66703;48.076;9.220;2023-09-30T12:42:43;13.88;;;6.97;;
77563;SDS011;66703;48.076;9.220;2023-09-30T12:45:10;12.63;;;5.90;;
77563;SDS011;66703;48.076;9.220;2023-09-30T12:47:36;11.88;;;5.78;;
77563;SDS011;66703;48.076;9.220;2023-09-30T12:50:01;11.85;;;6.10;;
77563;SDS011;66703;48.076;9.220;2023-09-30T12:52:28;13.80;;;6.10;;
77563;SDS011;66703;48.076;9.220;2023-09-30T12:54:55;14.13;;;5.97;;
77563;SDS011;66703;48.076;9.220;2023-09-30T12:57:20;16.67;;;7.20;;
77563;SDS011;66703;48.076;9.220;2023-09-30T12:59:46;13.38;;;6.03;;
77563;SDS011;66703;48.076;9.220;2023-09-30T13:02:14;11.80;;;5.50;;
77563;SDS011;66703;48.076;9.220;2023-09-30T13:04:39;15.13;;;5.82;;
77563;SDS011;66703;48.076;9.220;2023-09-30T13:07:11;14.82;;;6.72;;
77563;SDS011;66703;48.076;9.220;2023-09-30T13:09:38;11.68;;;5.93;;
77563;SDS011;66703;48.076;9.220;2023-09-30T13:12:04;15.70;;;7.65;;
77563;SDS011;66703;48.076;9.220;2023-09-30T13:14:29;13.82;;;5.85;;
77563;SDS011;66703;48.076;9.220;2023-09-30T13:16:55;13.68;;;6.53;;
77563;SDS011;66703;48.076;9.220;2023-09-30T13:19:20;14.48;;;6.93;;
77563;SDS011;66703;48.076;9.220;2023-09-30T13:21:46;16.17;;;6.53;;
77563;SDS011;66703;48.076;9.220;2023-09-30T13:24:12;14.35;;;6.35;;
77563;SDS011;66703;48.076;9.220;2023-09-30T13:26:39;15.57;;;6.47;;
77563;SDS011;66703;48.076;9.220;2023-09-30T13:29:04;16.63;;;6.10;;
77563;SDS011;66703;48.076;9.220;2023-09-30T13:31:30;11.48;;;6.55;;
77563;SDS011;66703;48.076;9.220;2023-09-30T13:33:56;16.98;;;7.10;;
77563;SDS011;66703;48.076;9.220;2023-09-30T13:36:21;14.80;;;6.95;;
77563;SDS011;66703;48.076;9.220;2023-09-30T13:38:47;13.32;;;6.18;;
77563;SDS011;66703;48.076;9.220;2023-09-30T13:41:14;15.25;;;7.32;;
77563;SDS011;66703;48.076;9.220;2023-09-30T13:43:40;15.07;;;7.13;;
77563;SDS011;66703;48.076;9.220;2023-09-30T13:46:06;13.13;;;6.65;;
77563;SDS011;66703;48.076;9.220;2023-09-30T13:48:32;16.45;;;7.55;;
77563;SDS011;66703;48.076;9.220;2023-09-30T13:51:06;16.25;;;6.85;;
77563;SDS011;66703;48.076;9.220;2023-09-30T13:53:32;12.68;;;7.00;;
77563;SDS011;66703;48.076;9.220;2023-09-30T13:55:58;15.23;;;6.47;;
77563;SDS011;66703;48.076;9.220;2023-09-30T13:58:23;20.00;;;6.90;;
77563;SDS011;66703;48.076;9.220;2023-09-30T14:00:50;17.45;;;7.65;;
77563;SDS011;66703;48.076;9.220;2023-09-30T14:03:18;17.88;;;7.15;;
77563;SDS011;66703;48.076;9.220;2023-09-30T14:05:44;13.88;;;6.95;;
77563;SDS011;66703;48.076;9.220;2023-09-30T14:08:10;17.08;;;7.55;;
77563;SDS011;66703;48.076;9.220;2023-09-30T14:10:36;17.33;;;7.50;;
77563;SDS011;66703;48.076;9.220;2023-09-30T14:13:02;15.20;;;6.63;;
77563;SDS011;66703;48.076;9.220;2023-09-30T14:15:28;14.02;;;6.97;;
77563;SDS011;66703;48.076;9.220;2023-09-30T14:17:54;16.63;;;7.43;;
77563;SDS011;66703;48.076;9.220;2023-09-30T14:20:20;14.32;;;7.05;;
77563;SDS011;66703;48.076;9.220;2023-09-30T14:22:46;14.85;;;7.07;;
77563;SDS011;66703;48.076;9.220;2023-09-30T14:25:12;14.90;;;6.70;;
77563;SDS011;66703;48.076;9.220;2023-09-30T14:27:38;13.77;;;6.90;;
77563;SDS011;66703;48.076;9.220;2023-09-30T14:30:05;14.73;;;6.40;;
77563;SDS011;66703;48.076;9.220;2023-09-30T14:32:31;13.40;;;7.10;;
77563;SDS011;66703;48.076;9.220;2023-09-30T14:34:57;15.07;;;6.95;;
77563;SDS011;66703;48.076;9.220;2023-09-30T14:37:23;16.08;;;6.78;;
77563;SDS011;66703;48.076;9.220;2023-09-30T14:39:48;15.63;;;7.20;;
77563;SDS011;66703;48.076;9.220;2023-09-30T14:42:14;15.32;;;7.55;;
77563;SDS011;66703;48.076;9.220;2023-09-30T14:44:39;14.95;;;7.28;;
77563;SDS011;66703;48.076;9.220;2023-09-30T14:47:05;16.23;;;7.50;;
77563;SDS011;66703;48.076;9.220;2023-09-30T14:49:30;14.50;;;7.45;;
77563;SDS011;66703;48.076;9.220;2023-09-30T14:51:57;18.30;;;7.55;;
77563;SDS011;66703;48.076;9.220;2023-09-30T14:54:22;14.35;;;6.97;;
77563;SDS011;66703;48.076;9.220;2023-09-30T14:56:48;11.95;;;6.32;;
77563;SDS011;66703;48.076;9.220;2023-09-30T14:59:13;19.77;;;8.07;;
77563;SDS011;66703;48.076;9.220;2023-09-30T15:01:39;14.23;;;7.93;;
77563;SDS011;66703;48.076;9.220;2023-09-30T15:04:04;18.65;;;7.90;;
77563;SDS011;66703;48.076;9.220;2023-09-30T15:06:32;17.95;;;8.32;;